Terminal Aerodrome Forecast
Issued by NWS Chicago, IL

Home | Current Version | Previous Version | Text Only | Print | Product List | Glossary On
Versions: 1 2 3 4 5 6 7 8 9 10 11 12 13 14 15 16 17 18 19 20 21 22 23 24 25 26 27 28 29 30 31 32
000
FTUS43 KLOT 200500
TAFRFD
TAF
KRFD 200538Z 2006/2106 00000KT P6SM FEW015 BKN035 OVC200
     FM201500 17004KT P6SM BKN025
     FM210200 16005KT 6SM HZ OVC015=

USA.gov is the U.S. government's official web portal to all federal, state and local government web resources and services.